»·PEaware :: N57WT KUDD-KTNP

N57WT :: KUDD-KTNP

FLIGHT INFORMATION

Flight Status: Arrived
Operator: Privately registered:
United States
More flights under this callsign
Pilot: Bashar D. (27147)
Aircraft: CESSNA 172 SKYHAWK
(C172)
More flights by this aircraft type
Origin: KUDD Bermuda Dunes
United States
Destination: KTNP Twentynine Palms
United States
More flights between these airports :: More routes between these airports
Route: BD1 TRM TNP
File this flight plan on PilotEdge
Remarks: Training Flight
Altitude:
(Current/Filed)
7,000ft
Speed:
(Current/Filed)
100kts
Departed: 13-Feb-20 09:07 PM
Arrived: 13-Feb-20 10:14 PM
Distance/Time
Traveled:
28nm/1:07
Distance/Time
To Go:
Arrived

Flight Plot

Page will automatically refresh every two minutes.

Flight plan parsing failed; only flown route is shown


Map Options




Map Legend


Flown Route
Filed Route
Departure Airport
Arrival Airport
Navaid (VOR, NDB)
Fix

Horizontal Profiles

Position Reports

Time Latitude Longitude Heading Altitude Ground
Speed
13-Feb-20 20:57 33.746260 -116.270688 79 56ft 0kts
13-Feb-20 20:58 33.746260 -116.270688 79 56ft 0kts
13-Feb-20 20:59 33.746260 -116.270688 79 56ft 0kts
13-Feb-20 21:00 33.746139 -116.270618 205 56ft 10kts
13-Feb-20 21:01 33.747648 -116.274245 298 61ft 10kts
13-Feb-20 21:02 33.748390 -116.276018 295 63ft 18kts
13-Feb-20 21:03 33.750796 -116.282070 293 75ft 26kts
13-Feb-20 21:04 33.751167 -116.282428 355 76ft 0kts
13-Feb-20 21:05 33.751314 -116.281946 102 76ft 17kts
13-Feb-20 21:06 33.745573 -116.266947 130 482ft 90kts
13-Feb-20 21:07 33.731973 -116.258621 154 856ft 108kts
13-Feb-20 21:08 33.718118 -116.248288 143 1231ft 112kts
13-Feb-20 21:09 33.705515 -116.236459 140 1591ft 112kts
13-Feb-20 21:10 33.692856 -116.223943 140 1959ft 112kts
13-Feb-20 21:11 33.679552 -116.210735 140 2349ft 111kts
13-Feb-20 21:12 33.661665 -116.193017 140 2876ft 110kts
13-Feb-20 21:14 33.644041 -116.175629 140 3509ft 101kts
13-Feb-20 21:21 33.635308 -116.138365 41 6786ft 101kts
13-Feb-20 21:22 33.653211 -116.134952 11 6918ft 119kts
13-Feb-20 21:23 33.672543 -116.124624 28 6917ft 126kts
13-Feb-20 21:24 33.694987 -116.106885 34 6917ft 128kts
13-Feb-20 21:25 33.722122 -116.084974 33 6917ft 128kts
13-Feb-20 21:26 33.754076 -116.059237 33 6917ft 128kts
13-Feb-20 21:27 33.783524 -116.035340 33 6916ft 118kts
13-Feb-20 21:28 33.809276 -116.014705 34 6917ft 114kts
13-Feb-20 21:29 33.835356 -115.993702 33 6917ft 114kts
13-Feb-20 21:30 33.862041 -115.972196 33 6917ft 114kts
13-Feb-20 21:31 33.886872 -115.952177 33 6917ft 114kts
13-Feb-20 21:32 33.904896 -115.937760 34 6917ft 114kts
13-Feb-20 21:33 33.922866 -115.923298 33 6917ft 114kts
13-Feb-20 21:34 33.941049 -115.908471 33 6917ft 114kts
13-Feb-20 21:35 33.958741 -115.894302 32 6917ft 114kts
13-Feb-20 21:36 33.976544 -115.879865 33 6917ft 114kts
13-Feb-20 21:37 33.993741 -115.864269 45 6917ft 114kts
13-Feb-20 21:38 34.011955 -115.849419 33 6917ft 114kts
13-Feb-20 21:39 34.030329 -115.834856 33 6917ft 114kts
13-Feb-20 21:39 34.045636 -115.823191 31 6917ft 114kts
13-Feb-20 21:40 34.063498 -115.808668 33 6917ft 114kts
13-Feb-20 21:42 34.084630 -115.791927 33 6917ft 114kts
13-Feb-20 21:42 34.099406 -115.780003 32 6917ft 114kts
13-Feb-20 21:43 34.112019 -115.761868 90 6913ft 114kts
13-Feb-20 21:44 34.110421 -115.735397 93 6917ft 114kts
13-Feb-20 21:45 34.108234 -115.696317 93 6917ft 114kts
13-Feb-20 21:46 34.106016 -115.656845 93 6917ft 114kts
13-Feb-20 21:47 34.103787 -115.617660 93 6917ft 114kts
13-Feb-20 21:48 34.093759 -115.583580 113 6917ft 114kts
13-Feb-20 21:49 34.082980 -115.550803 111 6917ft 114kts
13-Feb-20 21:50 34.073209 -115.515440 82 6913ft 114kts
13-Feb-20 21:51 34.087023 -115.506312 339 6913ft 113kts
13-Feb-20 21:52 34.094806 -115.524919 275 6627ft 129kts
13-Feb-20 21:53 34.096942 -115.548514 276 6253ft 133kts
13-Feb-20 21:54 34.099200 -115.572482 276 5934ft 130kts
13-Feb-20 21:55 34.101489 -115.595583 276 5916ft 118kts
13-Feb-20 21:56 34.103681 -115.617471 276 5917ft 114kts
13-Feb-20 21:57 34.105876 -115.639366 276 5917ft 114kts
13-Feb-20 21:58 34.108132 -115.661560 276 5591ft 130kts
13-Feb-20 21:59 34.110203 -115.681667 277 5223ft 108kts
13-Feb-20 22:00 34.113971 -115.699762 291 4886ft 104kts
13-Feb-20 22:01 34.114388 -115.717684 238 4477ft 112kts
13-Feb-20 22:02 34.114202 -115.736221 313 4260ft 108kts
13-Feb-20 22:03 34.126724 -115.751546 292 4113ft 104kts
13-Feb-20 22:04 34.117432 -115.765140 208 3983ft 93kts
13-Feb-20 22:05 34.125115 -115.781705 332 3625ft 98kts
13-Feb-20 22:06 34.123385 -115.815427 273 3277ft 97kts
13-Feb-20 22:07 34.125289 -115.849122 242 2797ft 105kts
13-Feb-20 22:08 34.131084 -115.868085 302 2641ft 98kts
13-Feb-20 22:09 34.134363 -115.887860 263 2690ft 87kts
13-Feb-20 22:10 34.133954 -115.908031 270 2273ft 103kts
13-Feb-20 22:11 34.134127 -115.926691 265 2121ft 76kts
13-Feb-20 22:12 34.134343 -115.944060 269 1891ft 49kts
13-Feb-20 22:13 34.135416 -115.947440 331 1887ft 0kts
13-Feb-20 22:14 34.135195 -115.945330 91 1889ft 0kts
13-Feb-20 22:15 34.135317 -115.944724 171 1888ft 4kts

Navigation Log

Ident Type
Flight plan parsing failed, navigation log unavailable